createdAt,value
2019-03-10T00:00:52.679Z,93.10
2019-03-10T00:01:57.458Z,93.10
2019-03-10T00:03:02.273Z,92.70
2019-03-10T00:04:09.852Z,92.70
2019-03-10T00:05:14.031Z,92.80
2019-03-10T00:06:18.343Z,92.90
2019-03-10T00:07:24.388Z,92.80
2019-03-10T00:08:28.452Z,92.60
2019-03-10T00:09:35.820Z,92.50
2019-03-10T00:10:42.877Z,92.50
2019-03-10T00:11:49.021Z,92.70
2019-03-10T00:12:53.323Z,92.70
2019-03-10T00:13:59.755Z,92.70
2019-03-10T00:15:09.324Z,92.90
2019-03-10T00:16:14.564Z,93.00
2019-03-10T00:17:21.408Z,93.10
2019-03-10T00:18:26.746Z,93.10
2019-03-10T00:19:31.635Z,93.10
2019-03-10T00:20:36.926Z,93.10
2019-03-10T00:21:41.100Z,93.20
2019-03-10T00:22:45.408Z,93.30
2019-03-10T00:23:51.118Z,93.40
2019-03-10T00:24:56.981Z,93.40
2019-03-10T00:26:03.459Z,93.30
2019-03-10T00:27:08.268Z,93.30
2019-03-10T00:28:13.754Z,93.20
2019-03-10T00:30:53.428Z,93.10
2019-03-10T00:32:02.139Z,93.20
2019-03-10T00:33:06.872Z,93.20
2019-03-10T00:34:13.136Z,93.30
2019-03-10T00:35:20.348Z,93.30
2019-03-10T00:36:24.651Z,93.30
2019-03-10T00:37:28.878Z,93.30
2019-03-10T00:38:36.085Z,93.30
2019-03-10T00:39:59.516Z,93.20
2019-03-10T00:41:23.275Z,93.20
2019-03-10T00:43:04.125Z,93.20
2019-03-10T00:44:33.171Z,93.30
2019-03-10T00:45:43.733Z,93.30
2019-03-10T00:47:13.234Z,93.20
2019-03-10T00:48:48.944Z,93.10
2019-03-10T00:50:15.442Z,93.10
2019-03-10T00:51:49.783Z,93.10
2019-03-10T00:53:01.409Z,93.20
2019-03-10T00:54:05.324Z,93.30
2019-03-10T00:55:13.808Z,93.40
2019-03-10T00:56:19.744Z,93.50
2019-03-10T00:57:24.166Z,93.40
2019-03-10T00:58:30.107Z,93.40
2019-03-10T00:59:35.360Z,93.30
2019-03-10T01:00:41.914Z,93.10
2019-03-10T01:01:49.053Z,92.80
2019-03-10T01:02:54.923Z,92.60
2019-03-10T01:04:04.570Z,92.70
2019-03-10T01:05:37.525Z,92.70
2019-03-10T01:06:23.250Z,92.70
2019-03-10T01:07:28.228Z,92.70
2019-03-10T01:08:35.396Z,92.70
2019-03-10T01:09:41.444Z,92.80
2019-03-10T01:10:47.097Z,92.80
2019-03-10T01:11:52.899Z,92.70
2019-03-10T01:13:01.091Z,92.80
2019-03-10T01:14:08.022Z,92.90
2019-03-10T01:15:16.703Z,92.80
2019-03-10T01:16:24.314Z,92.80
2019-03-10T01:17:30.063Z,92.90
2019-03-10T01:18:38.160Z,92.90
2019-03-10T01:19:45.666Z,92.90
2019-03-10T01:20:53.704Z,92.40
2019-03-10T01:22:05.158Z,91.80
2019-03-10T01:23:20.624Z,92.20
2019-03-10T01:24:23.338Z,91.80
2019-03-10T01:25:30.751Z,91.80
2019-03-10T01:26:36.850Z,91.40
2019-03-10T01:27:42.025Z,91.20
2019-03-10T01:28:52.930Z,91.60
2019-03-10T01:29:57.264Z,91.30
2019-03-10T01:31:12.489Z,91.50
2019-03-10T01:32:40.237Z,91.60
2019-03-10T01:34:18.472Z,91.60
2019-03-10T01:35:29.995Z,91.70
2019-03-10T01:36:39.890Z,92.00
2019-03-10T01:37:54.184Z,92.00
2019-03-10T01:39:02.691Z,92.00
2019-03-10T01:40:16.045Z,92.00
2019-03-10T01:41:18.945Z,92.30
2019-03-10T01:42:27.151Z,92.20
2019-03-10T01:43:34.957Z,92.00
2019-03-10T01:44:40.695Z,92.30
2019-03-10T01:45:51.620Z,92.40
2019-03-10T01:46:54.864Z,92.50
2019-03-10T01:47:59.953Z,92.60
2019-03-10T01:49:05.819Z,92.80
2019-03-10T01:50:15.587Z,92.80
2019-03-10T01:51:22.780Z,92.70
2019-03-10T01:53:44.157Z,92.90
2019-03-10T01:54:58.642Z,92.90
2019-03-10T01:56:01.551Z,92.80
2019-03-10T01:57:18.406Z,92.90
2019-03-10T01:58:25.739Z,93.20
2019-03-10T01:59:33.050Z,93.30
2019-03-10T02:00:44.962Z,93.30
2019-03-10T02:01:50.038Z,93.50
2019-03-10T02:03:05.837Z,93.40
2019-03-10T02:04:09.210Z,93.50
2019-03-10T02:06:21.300Z,93.50
2019-03-10T02:06:33.613Z,93.30
2019-03-10T02:07:43.694Z,93.40
2019-03-10T02:08:56.392Z,93.50
2019-03-10T02:10:23.459Z,93.40
2019-03-10T02:11:50.807Z,93.40
2019-03-10T02:13:04.643Z,93.30
2019-03-10T02:14:02.103Z,93.30
2019-03-10T02:15:21.437Z,93.60
2019-03-10T02:16:18.899Z,93.30
2019-03-10T02:17:30.252Z,93.30
2019-03-10T02:18:38.499Z,93.10
2019-03-10T02:20:53.038Z,93.20
2019-03-10T02:22:04.578Z,93.30
2019-03-10T02:23:23.967Z,93.40
2019-03-10T02:24:30.297Z,93.50
2019-03-10T02:25:39.983Z,93.60
2019-03-10T02:26:45.897Z,93.10
2019-03-10T02:29:14.426Z,93.40
2019-03-10T02:29:51.861Z,93.40
2019-03-10T02:30:21.120Z,93.40
2019-03-10T02:31:25.581Z,93.20
2019-03-10T02:32:33.995Z,93.30
2019-03-10T02:33:45.104Z,93.20
2019-03-10T02:34:45.829Z,93.30
2019-03-10T02:35:59.025Z,93.30
2019-03-10T02:37:05.831Z,93.30
2019-03-10T02:38:29.564Z,92.90
2019-03-10T02:39:36.967Z,92.60
2019-03-10T02:40:43.572Z,92.70
2019-03-10T02:42:19.164Z,92.10
2019-03-10T02:43:09.993Z,91.20
2019-03-10T02:44:24.544Z,90.70
2019-03-10T02:46:40.574Z,89.20
2019-03-10T02:47:21.074Z,90.00
2019-03-10T02:47:55.358Z,89.50
2019-03-10T02:49:14.908Z,89.70
2019-03-10T02:50:12.752Z,88.10
2019-03-10T02:51:18.632Z,88.00
2019-03-10T02:52:22.906Z,88.90
2019-03-10T02:53:32.269Z,89.60
2019-03-10T02:54:34.759Z,88.50
2019-03-10T02:55:56.269Z,86.30
2019-03-10T02:58:44.577Z,84.90
2019-03-10T02:59:46.214Z,85.40
2019-03-10T03:00:49.624Z,84.30
2019-03-10T03:01:57.587Z,84.00
2019-03-10T03:03:03.925Z,84.30
2019-03-10T03:04:09.441Z,84.20
2019-03-10T03:05:16.516Z,85.20
2019-03-10T03:06:28.200Z,85.80
2019-03-10T03:07:33.669Z,85.70
2019-03-10T03:08:43.963Z,86.80
2019-03-10T03:09:50.075Z,86.50
2019-03-10T03:10:58.241Z,87.00
2019-03-10T03:12:02.604Z,87.40
2019-03-10T03:13:15.911Z,87.10
2019-03-10T03:14:22.672Z,87.00
2019-03-10T03:15:29.545Z,86.70
2019-03-10T03:16:37.897Z,86.70
2019-03-10T03:17:46.984Z,85.20
2019-03-10T03:18:54.259Z,85.00
2019-03-10T03:20:01.110Z,84.00
2019-03-10T03:21:05.553Z,82.50
2019-03-10T03:22:14.336Z,82.00
2019-03-10T03:23:20.280Z,80.60
2019-03-10T03:24:27.434Z,81.00
2019-03-10T03:25:34.122Z,81.70
2019-03-10T03:26:37.814Z,81.30
2019-03-10T03:27:44.282Z,82.70
2019-03-10T03:28:51.479Z,81.20
2019-03-10T03:29:58.398Z,80.80
2019-03-10T03:31:02.575Z,81.80
2019-03-10T03:32:11.481Z,81.80
2019-03-10T03:33:18.331Z,81.60
2019-03-10T03:34:26.721Z,81.70
2019-03-10T03:35:52.825Z,82.40
2019-03-10T03:36:59.566Z,83.00
2019-03-10T03:38:11.024Z,83.80
2019-03-10T03:39:23.380Z,84.40
2019-03-10T03:40:29.549Z,85.60
2019-03-10T03:41:38.558Z,85.60
2019-03-10T03:42:43.601Z,85.60
2019-03-10T03:43:53.337Z,86.00
2019-03-10T03:44:57.883Z,86.10
2019-03-10T03:46:06.550Z,86.70
2019-03-10T03:47:14.192Z,85.90
2019-03-10T03:48:30.188Z,85.40
2019-03-10T03:49:29.730Z,84.30
2019-03-10T03:50:38.346Z,83.60
2019-03-10T03:52:05.557Z,82.60
2019-03-10T03:52:52.557Z,81.10
2019-03-10T03:54:04.859Z,81.30
2019-03-10T03:55:12.553Z,80.70
2019-03-10T03:56:23.741Z,79.00
2019-03-10T03:57:33.672Z,79.20
2019-03-10T03:58:41.843Z,79.40
2019-03-10T03:59:49.425Z,79.70
2019-03-10T04:00:57.409Z,79.40
2019-03-10T04:02:06.657Z,80.20
2019-03-10T04:03:13.243Z,80.60
2019-03-10T04:04:21.975Z,80.20
2019-03-10T04:05:36.832Z,80.10
2019-03-10T04:06:44.139Z,80.60
2019-03-10T04:08:18.498Z,80.60
2019-03-10T04:09:07.042Z,81.00
2019-03-10T04:10:37.496Z,80.90
2019-03-10T04:11:45.931Z,81.90
2019-03-10T04:12:47.820Z,81.10
2019-03-10T04:15:24.311Z,81.30
2019-03-10T04:16:32.824Z,80.40
2019-03-10T04:17:44.918Z,80.60
2019-03-10T04:20:10.274Z,80.70
2019-03-10T04:21:14.660Z,80.10
2019-03-10T04:22:18.853Z,80.30
2019-03-10T04:23:24.927Z,80.30
2019-03-10T04:24:38.643Z,79.70
2019-03-10T04:25:45.754Z,80.00
2019-03-10T04:26:48.818Z,79.80
2019-03-10T04:27:58.544Z,80.50
2019-03-10T04:29:04.982Z,80.40
2019-03-10T04:30:12.707Z,80.80
2019-03-10T04:31:20.656Z,80.40
2019-03-10T04:32:28.019Z,80.60
2019-03-10T04:33:37.270Z,80.80
2019-03-10T04:34:45.199Z,81.40
2019-03-10T04:35:55.537Z,81.40
2019-03-10T04:37:07.894Z,80.90
2019-03-10T04:40:32.452Z,81.10
2019-03-10T04:41:11.542Z,81.20
2019-03-10T04:42:14.080Z,80.30
2019-03-10T04:43:41.465Z,80.40
2019-03-10T04:44:46.840Z,80.00
2019-03-10T04:45:59.852Z,80.10
2019-03-10T04:48:41.863Z,80.60
2019-03-10T04:49:51.724Z,80.30
2019-03-10T04:51:12.194Z,80.60
2019-03-10T04:52:21.429Z,81.00
2019-03-10T04:53:28.433Z,80.90
2019-03-10T04:54:48.393Z,81.00
2019-03-10T04:56:13.128Z,80.60
2019-03-10T04:57:15.779Z,80.00
2019-03-10T04:58:26.095Z,80.60
2019-03-10T04:59:37.649Z,80.40
2019-03-10T05:01:07.653Z,80.20
2019-03-10T05:03:58.652Z,79.90
2019-03-10T05:05:19.049Z,80.60
2019-03-10T05:06:24.918Z,80.40
2019-03-10T05:07:32.296Z,79.90
2019-03-10T05:08:44.157Z,80.30
2019-03-10T05:09:59.637Z,80.50
2019-03-10T05:11:03.418Z,80.60
2019-03-10T05:12:16.233Z,80.30
2019-03-10T05:15:03.247Z,80.70
2019-03-10T05:16:13.335Z,81.10
2019-03-10T05:17:20.926Z,81.30
2019-03-10T05:18:40.651Z,80.70
2019-03-10T05:20:01.050Z,81.10
2019-03-10T05:22:51.154Z,81.00
2019-03-10T05:24:27.386Z,80.60
2019-03-10T05:25:41.139Z,80.50
2019-03-10T05:26:48.202Z,80.70
2019-03-10T05:29:43.988Z,80.70
2019-03-10T05:30:55.007Z,81.00
2019-03-10T05:32:00.753Z,81.00
2019-03-10T05:33:12.185Z,80.70
2019-03-10T05:34:20.715Z,81.10
2019-03-10T05:35:38.332Z,81.20
2019-03-10T05:36:44.238Z,80.50
2019-03-10T05:37:56.425Z,80.10
2019-03-10T05:39:24.521Z,80.00
2019-03-10T05:40:25.673Z,80.60
2019-03-10T05:43:13.820Z,80.70
2019-03-10T05:43:24.864Z,81.30
2019-03-10T05:44:44.633Z,81.00
2019-03-10T05:45:57.852Z,80.60
2019-03-10T05:47:09.570Z,81.10
2019-03-10T05:49:25.596Z,81.70
2019-03-10T05:49:53.799Z,80.40
2019-03-10T05:51:11.233Z,80.60
2019-03-10T05:52:51.033Z,81.10
2019-03-10T05:54:07.219Z,79.70
2019-03-10T05:54:50.102Z,79.80
2019-03-10T05:56:03.276Z,80.60
2019-03-10T05:57:24.855Z,81.20
2019-03-10T05:58:29.252Z,80.60
2019-03-10T05:59:36.090Z,80.20
2019-03-10T06:00:43.419Z,78.90
2019-03-10T06:01:53.046Z,79.10
2019-03-10T06:06:21.964Z,78.90
2019-03-10T06:24:54.242Z,76.20
2019-03-10T06:27:34.170Z,77.10
2019-03-10T06:29:36.375Z,76.70
2019-03-10T06:30:56.256Z,76.60
2019-03-10T06:34:27.692Z,76.70
2019-03-10T06:36:57.295Z,77.50
2019-03-10T06:38:02.799Z,76.70
2019-03-10T06:44:54.242Z,77.00
2019-03-10T06:47:44.852Z,76.50
2019-03-10T06:50:20.110Z,76.50
2019-03-10T06:51:29.104Z,76.40
2019-03-10T06:52:38.281Z,75.40
2019-03-10T06:53:55.875Z,75.60
2019-03-10T06:54:58.245Z,75.20
2019-03-10T06:56:20.746Z,74.50
2019-03-10T06:57:28.753Z,74.70
2019-03-10T06:59:46.096Z,74.30
2019-03-10T07:01:12.072Z,73.80
2019-03-10T07:02:20.889Z,73.80
2019-03-10T07:03:33.012Z,73.00
2019-03-10T07:04:50.431Z,72.30
2019-03-10T07:06:01.770Z,72.90
2019-03-10T07:07:37.436Z,71.70
2019-03-10T07:08:20.966Z,71.00
2019-03-10T07:09:45.921Z,70.70
2019-03-10T07:12:25.168Z,70.90
2019-03-10T07:15:31.872Z,70.90
2019-03-10T07:16:59.840Z,70.00
2019-03-10T07:19:10.722Z,69.40
2019-03-10T07:23:28.230Z,67.90
2019-03-10T07:25:37.856Z,68.70
2019-03-10T07:34:49.179Z,66.80
2019-03-10T07:35:46.934Z,66.50
2019-03-10T07:37:25.260Z,66.90
2019-03-10T07:39:30.618Z,67.80
2019-03-10T07:40:10.944Z,68.10
2019-03-10T07:41:33.081Z,68.10
2019-03-10T07:43:07.770Z,67.70
2019-03-10T07:47:54.173Z,67.00
2019-03-10T07:50:01.036Z,66.20
2019-03-10T07:53:46.585Z,65.50
2019-03-10T08:06:26.570Z,63.30
2019-03-10T08:13:42.792Z,61.10
2019-03-10T08:16:04.644Z,62.10
2019-03-10T08:23:02.654Z,62.40
2019-03-10T08:24:25.606Z,61.20
2019-03-10T08:26:07.350Z,61.00
2019-03-10T08:27:27.443Z,61.70
2019-03-10T08:28:50.936Z,61.20
2019-03-10T08:30:00.181Z,62.20
2019-03-10T08:31:29.978Z,61.60
2019-03-10T08:32:44.033Z,61.60
2019-03-10T08:34:08.562Z,61.20
2019-03-10T08:35:50.180Z,61.30
2019-03-10T08:37:05.646Z,62.20
2019-03-10T08:39:52.939Z,61.80
2019-03-10T08:44:33.216Z,60.30
2019-03-10T08:45:49.576Z,59.20
2019-03-10T08:47:04.516Z,58.60
2019-03-10T08:48:28.002Z,58.20
2019-03-10T08:49:44.966Z,58.80
2019-03-10T08:50:57.595Z,58.60
2019-03-10T08:54:07.098Z,59.00
2019-03-10T08:55:16.566Z,58.10
2019-03-10T08:56:24.446Z,58.40
2019-03-10T08:57:46.693Z,58.80
2019-03-10T08:59:12.638Z,58.30
2019-03-10T09:00:37.262Z,58.50
2019-03-10T09:02:02.591Z,58.10
2019-03-10T09:03:19.478Z,58.90
2019-03-10T09:04:38.143Z,58.50
2019-03-10T09:06:06.702Z,59.30
2019-03-10T09:07:23.835Z,59.10
2019-03-10T09:08:36.020Z,59.00
2019-03-10T09:10:00.682Z,59.80
2019-03-10T09:11:30.797Z,59.10
2019-03-10T09:12:31.416Z,59.60
2019-03-10T09:13:48.290Z,59.60
2019-03-10T09:15:00.966Z,59.20
2019-03-10T09:16:06.894Z,59.80
2019-03-10T09:17:17.540Z,59.80
2019-03-10T09:18:44.999Z,60.30
2019-03-10T09:19:58.366Z,60.50
2019-03-10T09:21:10.592Z,60.30
2019-03-10T09:22:41.032Z,60.60
2019-03-10T09:24:04.288Z,60.10
2019-03-10T09:25:05.190Z,59.60
2019-03-10T09:26:20.677Z,59.90
2019-03-10T09:27:42.990Z,59.60
2019-03-10T09:28:51.928Z,59.70
2019-03-10T09:30:01.607Z,59.60
2019-03-10T09:31:18.562Z,59.70
2019-03-10T09:32:40.010Z,59.70
2019-03-10T09:33:54.738Z,59.60
2019-03-10T09:35:03.335Z,59.40
2019-03-10T09:36:31.826Z,59.60
2019-03-10T09:37:56.927Z,59.60
2019-03-10T09:39:06.750Z,60.00
2019-03-10T09:40:14.457Z,59.30
2019-03-10T09:41:38.685Z,59.10
2019-03-10T09:42:51.618Z,58.30
2019-03-10T09:44:04.448Z,58.10
2019-03-10T09:45:22.627Z,57.40
2019-03-10T09:46:29.892Z,57.70
2019-03-10T09:47:53.194Z,57.60
2019-03-10T09:49:19.999Z,56.40
2019-03-10T09:50:34.549Z,56.40
2019-03-10T09:51:52.526Z,56.70
2019-03-10T09:53:10.596Z,56.20
2019-03-10T09:54:32.273Z,55.50
2019-03-10T09:55:57.920Z,55.30
2019-03-10T09:57:14.211Z,55.90
2019-03-10T09:58:40.417Z,56.70
2019-03-10T09:59:50.133Z,56.30
2019-03-10T10:00:55.983Z,56.40
2019-03-10T10:02:04.791Z,55.80
2019-03-10T10:03:13.274Z,56.30
2019-03-10T10:04:27.938Z,56.50
2019-03-10T10:05:36.505Z,56.40
2019-03-10T10:06:51.664Z,57.10
2019-03-10T10:07:59.598Z,57.50
2019-03-10T10:09:21.201Z,57.30
2019-03-10T10:10:34.415Z,57.40
2019-03-10T10:11:43.903Z,57.00
2019-03-10T10:13:06.005Z,57.30
2019-03-10T10:14:18.467Z,56.70
2019-03-10T10:15:26.395Z,56.60
2019-03-10T10:16:32.169Z,56.60
2019-03-10T10:17:56.520Z,56.60
2019-03-10T10:19:05.947Z,56.50
2019-03-10T10:20:28.910Z,56.90
2019-03-10T10:21:53.860Z,56.90
2019-03-10T10:23:00.501Z,57.20
2019-03-10T10:24:16.969Z,57.10
2019-03-10T10:25:31.111Z,56.50
2019-03-10T10:26:56.693Z,57.10
2019-03-10T10:27:56.758Z,57.50
2019-03-10T10:29:12.781Z,56.50
2019-03-10T10:30:46.336Z,56.30
2019-03-10T10:32:05.856Z,57.20
2019-03-10T10:33:40.861Z,57.50
2019-03-10T10:36:54.679Z,56.90
2019-03-10T10:41:08.478Z,55.80
2019-03-10T10:42:46.895Z,56.50
2019-03-10T10:44:15.327Z,56.00
2019-03-10T10:45:28.736Z,57.00
2019-03-10T10:46:38.049Z,56.50
2019-03-10T10:47:48.184Z,55.70
2019-03-10T10:48:55.336Z,56.00
2019-03-10T10:50:03.673Z,56.00
2019-03-10T10:51:31.752Z,56.90
2019-03-10T10:52:43.210Z,56.50
2019-03-10T10:54:06.367Z,56.60
2019-03-10T10:55:17.244Z,56.60
2019-03-10T10:56:33.148Z,56.10
2019-03-10T10:57:59.097Z,55.70
2019-03-10T10:59:12.972Z,56.00
2019-03-10T11:00:21.785Z,55.90
2019-03-10T11:01:37.773Z,55.20
2019-03-10T11:02:45.104Z,55.30
2019-03-10T11:04:07.105Z,54.00
2019-03-10T11:05:16.946Z,54.60
2019-03-10T11:06:24.546Z,54.60
2019-03-10T11:07:38.641Z,53.90
2019-03-10T11:08:57.389Z,54.10
2019-03-10T11:10:18.401Z,54.60
2019-03-10T11:11:30.009Z,54.20
2019-03-10T11:12:35.755Z,54.60
2019-03-10T11:13:51.523Z,54.10
2019-03-10T11:14:57.027Z,53.60
2019-03-10T11:16:20.221Z,53.80
2019-03-10T11:17:26.009Z,53.90
2019-03-10T11:18:47.423Z,54.00
2019-03-10T11:19:56.130Z,53.00
2019-03-10T11:21:15.650Z,52.20
2019-03-10T11:22:26.950Z,52.10
2019-03-10T11:23:34.352Z,52.90
2019-03-10T11:24:46.610Z,53.00
2019-03-10T11:26:08.518Z,52.50
2019-03-10T11:27:29.688Z,52.20
2019-03-10T11:28:51.867Z,52.00
2019-03-10T11:30:13.093Z,52.40
2019-03-10T11:31:20.753Z,52.30
2019-03-10T11:32:32.100Z,52.30
2019-03-10T11:33:45.778Z,52.50
2019-03-10T11:34:51.657Z,52.20
2019-03-10T11:36:13.857Z,52.00
2019-03-10T11:37:26.945Z,51.80
2019-03-10T11:38:37.061Z,51.90
2019-03-10T11:39:46.365Z,52.10
2019-03-10T11:41:05.194Z,52.40
2019-03-10T11:42:31.128Z,52.50
2019-03-10T11:43:43.270Z,52.60
2019-03-10T11:45:05.680Z,52.80
2019-03-10T11:46:13.691Z,52.50
2019-03-10T11:47:26.002Z,52.60
2019-03-10T11:48:36.638Z,52.80
2019-03-10T11:49:52.067Z,52.60
2019-03-10T11:52:59.421Z,52.70
2019-03-10T11:54:15.828Z,52.90
2019-03-10T11:55:27.992Z,52.80
2019-03-10T11:56:38.716Z,52.90
2019-03-10T11:58:00.811Z,52.90
2019-03-10T11:59:13.381Z,52.40
2019-03-10T12:00:48.731Z,52.80
2019-03-10T12:02:16.185Z,52.70
2019-03-10T12:03:44.452Z,53.00
2019-03-10T12:05:30.571Z,53.00
2019-03-10T12:06:38.977Z,53.80
2019-03-10T12:07:45.293Z,54.20
2019-03-10T12:08:54.254Z,54.30
2019-03-10T12:09:59.394Z,54.50
2019-03-10T12:11:13.009Z,54.40
2019-03-10T12:12:19.819Z,54.20
2019-03-10T12:13:28.078Z,54.30
2019-03-10T12:14:34.531Z,54.10
2019-03-10T12:15:42.985Z,54.00
2019-03-10T12:16:52.425Z,53.30
2019-03-10T12:18:00.889Z,53.10
2019-03-10T12:19:09.827Z,53.40
2019-03-10T12:21:47.242Z,53.10
2019-03-10T12:22:53.031Z,53.30
2019-03-10T12:24:02.547Z,53.40
2019-03-10T12:25:23.925Z,53.80
2019-03-10T12:26:25.938Z,53.90
2019-03-10T12:27:32.245Z,54.00
2019-03-10T12:28:37.062Z,53.90
2019-03-10T12:29:41.188Z,53.80
2019-03-10T12:30:51.493Z,53.80
2019-03-10T12:31:55.087Z,53.70
2019-03-10T12:33:01.020Z,52.90
2019-03-10T12:34:13.014Z,52.90
2019-03-10T12:35:17.936Z,53.20
2019-03-10T12:38:01.014Z,52.30
2019-03-10T12:39:08.710Z,52.20
2019-03-10T12:40:29.897Z,52.50
2019-03-10T12:41:36.584Z,52.80
2019-03-10T12:42:50.304Z,52.80
2019-03-10T12:44:02.155Z,52.70
2019-03-10T12:45:11.192Z,52.80
2019-03-10T12:46:16.235Z,53.10
2019-03-10T12:47:22.422Z,52.60
2019-03-10T12:48:32.352Z,52.80
2019-03-10T12:49:38.388Z,52.70
2019-03-10T12:50:55.801Z,53.00
2019-03-10T12:51:53.248Z,53.20
2019-03-10T12:52:57.486Z,53.40
2019-03-10T12:54:01.569Z,53.40
2019-03-10T12:55:08.723Z,53.40
2019-03-10T12:56:34.230Z,53.50
2019-03-10T12:57:33.256Z,53.80
2019-03-10T12:58:39.258Z,53.90
2019-03-10T12:59:46.743Z,54.30
2019-03-10T13:00:52.545Z,53.50
2019-03-10T13:01:56.715Z,53.40
2019-03-10T13:03:00.930Z,53.40
2019-03-10T13:04:06.636Z,53.60
2019-03-10T13:05:30.202Z,53.20
2019-03-10T13:06:29.591Z,52.80
2019-03-10T13:07:50.637Z,52.90
2019-03-10T13:08:52.288Z,52.70
2019-03-10T13:09:59.542Z,52.50
2019-03-10T13:11:03.696Z,52.60
2019-03-10T13:12:09.329Z,52.70
2019-03-10T13:13:14.015Z,52.90
2019-03-10T13:14:18.273Z,53.00
2019-03-10T13:15:22.529Z,53.10
2019-03-10T13:16:26.689Z,53.10
2019-03-10T13:17:33.852Z,52.90
2019-03-10T13:18:38.077Z,52.90
2019-03-10T13:19:42.931Z,52.30
2019-03-10T13:20:47.121Z,52.60
2019-03-10T13:21:54.011Z,52.30
2019-03-10T13:22:58.139Z,52.00
2019-03-10T13:24:06.043Z,52.00
2019-03-10T13:25:13.354Z,51.50
2019-03-10T13:26:17.566Z,51.60
2019-03-10T13:27:22.885Z,51.50
2019-03-10T13:28:28.373Z,51.00
2019-03-10T13:29:32.506Z,51.20
2019-03-10T13:30:38.235Z,50.20
2019-03-10T13:31:45.039Z,50.30
2019-03-10T13:32:51.048Z,50.20
2019-03-10T13:33:58.161Z,50.40
2019-03-10T13:35:02.992Z,50.60
2019-03-10T13:36:09.770Z,50.60
2019-03-10T13:37:16.778Z,50.50
2019-03-10T13:38:23.632Z,50.40
2019-03-10T13:39:34.231Z,50.30
2019-03-10T13:40:38.376Z,50.60
2019-03-10T13:41:44.637Z,50.00
2019-03-10T13:42:55.337Z,50.30
2019-03-10T13:43:56.872Z,50.60
2019-03-10T13:45:04.965Z,50.50
2019-03-10T13:46:14.519Z,50.70
2019-03-10T13:47:19.602Z,50.50
2019-03-10T13:48:24.440Z,50.50
2019-03-10T13:49:31.379Z,50.70
2019-03-10T13:50:37.489Z,50.70
2019-03-10T13:51:44.885Z,50.90
2019-03-10T13:52:51.003Z,50.80
2019-03-10T13:53:56.700Z,50.60
2019-03-10T13:55:02.218Z,50.90
2019-03-10T13:56:10.786Z,50.70
2019-03-10T13:57:17.902Z,51.20
2019-03-10T13:58:22.877Z,51.20
2019-03-10T13:59:27.717Z,51.40
2019-03-10T14:00:37.410Z,50.90
2019-03-10T14:01:43.308Z,50.60
2019-03-10T14:02:47.594Z,50.80
2019-03-10T14:03:55.310Z,50.90
2019-03-10T14:05:03.735Z,50.60
2019-03-10T14:06:09.648Z,50.40
2019-03-10T14:07:15.735Z,50.00
2019-03-10T14:08:22.136Z,49.90
2019-03-10T14:09:27.857Z,49.60
2019-03-10T14:10:33.675Z,49.90
2019-03-10T14:11:40.109Z,48.80
2019-03-10T14:12:46.143Z,48.70
2019-03-10T14:13:51.831Z,49.00
2019-03-10T14:15:00.047Z,48.40
2019-03-10T14:16:05.742Z,49.00
2019-03-10T14:17:34.561Z,48.70
2019-03-10T14:18:19.856Z,48.50
2019-03-10T14:19:28.727Z,48.70
2019-03-10T14:20:37.722Z,48.40
2019-03-10T14:21:38.823Z,48.50
2019-03-10T14:22:43.644Z,49.60
2019-03-10T14:23:54.248Z,48.60
2019-03-10T14:24:58.986Z,48.80
2019-03-10T14:26:04.831Z,48.90
2019-03-10T14:27:09.159Z,48.70
2019-03-10T14:28:17.445Z,49.00
2019-03-10T14:29:22.400Z,48.40
2019-03-10T14:30:30.605Z,48.60
2019-03-10T14:31:39.045Z,48.60
2019-03-10T14:32:44.528Z,48.60
2019-03-10T14:33:51.459Z,48.50
2019-03-10T14:34:56.783Z,48.80
2019-03-10T14:36:02.980Z,48.80
2019-03-10T14:37:14.083Z,48.70
2019-03-10T14:38:18.415Z,48.80
2019-03-10T14:39:24.710Z,48.80
2019-03-10T14:40:30.695Z,48.40
2019-03-10T14:41:36.419Z,48.40
2019-03-10T14:42:46.320Z,48.50
2019-03-10T14:43:50.508Z,48.40
2019-03-10T14:44:57.082Z,48.70
2019-03-10T14:46:02.751Z,48.90
2019-03-10T14:47:07.010Z,49.00
2019-03-10T14:48:11.521Z,48.90
2019-03-10T14:49:23.021Z,48.80
2019-03-10T14:50:22.570Z,48.50
2019-03-10T14:51:29.594Z,48.50
2019-03-10T14:52:33.847Z,48.60
2019-03-10T14:53:42.517Z,48.70
2019-03-10T14:54:46.335Z,48.70
2019-03-10T14:55:52.131Z,48.80
2019-03-10T14:56:56.409Z,48.40
2019-03-10T14:58:00.629Z,48.40
2019-03-10T14:59:05.692Z,48.80
2019-03-10T15:00:15.787Z,48.90
2019-03-10T15:01:22.432Z,48.80
2019-03-10T15:02:28.419Z,49.00
2019-03-10T15:03:32.535Z,49.60
2019-03-10T15:04:40.854Z,49.40
2019-03-10T15:05:46.607Z,49.40
2019-03-10T15:06:50.847Z,49.50
2019-03-10T15:07:57.012Z,49.40
2019-03-10T15:09:03.515Z,49.20
2019-03-10T15:10:10.596Z,49.00
2019-03-10T15:11:16.004Z,49.20
2019-03-10T15:12:24.823Z,49.60
2019-03-10T15:13:29.452Z,49.90
2019-03-10T15:14:35.017Z,50.00
2019-03-10T15:15:49.229Z,49.50
2019-03-10T15:17:01.389Z,49.60
2019-03-10T15:18:03.026Z,49.70
2019-03-10T15:19:09.719Z,49.60
2019-03-10T15:20:30.133Z,49.60
2019-03-10T15:21:35.661Z,49.70
2019-03-10T15:22:43.398Z,50.00
2019-03-10T15:23:48.178Z,50.10
2019-03-10T15:24:56.493Z,49.50
2019-03-10T15:26:01.793Z,47.30
2019-03-10T15:27:08.683Z,47.90
2019-03-10T15:28:19.204Z,48.00
2019-03-10T15:29:27.110Z,48.00
2019-03-10T15:30:31.378Z,48.10
2019-03-10T15:31:44.614Z,48.30
2019-03-10T15:32:50.456Z,47.50
2019-03-10T15:33:56.200Z,47.80
2019-03-10T15:35:03.618Z,47.30
2019-03-10T15:36:19.939Z,47.60
2019-03-10T15:37:23.707Z,47.30
2019-03-10T15:38:30.228Z,47.30
2019-03-10T15:39:37.485Z,47.30
2019-03-10T15:40:51.012Z,47.70
2019-03-10T15:41:58.713Z,48.00
2019-03-10T15:43:03.865Z,48.00
2019-03-10T15:44:08.574Z,48.00
2019-03-10T15:45:16.433Z,47.60
2019-03-10T15:46:28.534Z,47.60
2019-03-10T15:47:32.641Z,47.40
2019-03-10T15:48:36.884Z,48.00
2019-03-10T15:49:42.398Z,47.70
2019-03-10T15:50:52.282Z,48.40
2019-03-10T15:51:56.374Z,48.50
2019-03-10T15:53:02.073Z,48.40
2019-03-10T15:54:09.666Z,48.90
2019-03-10T15:55:13.596Z,48.70
2019-03-10T15:56:19.341Z,48.80
2019-03-10T15:57:24.988Z,49.10
2019-03-10T15:58:30.440Z,49.20
2019-03-10T15:59:34.633Z,49.20
2019-03-10T16:00:39.976Z,49.40
2019-03-10T16:01:50.438Z,49.50
2019-03-10T16:02:57.707Z,49.40
2019-03-10T16:04:16.824Z,49.50
2019-03-10T16:05:41.077Z,49.60
2019-03-10T16:06:47.497Z,49.90
2019-03-10T16:07:59.673Z,50.20
2019-03-10T16:09:08.126Z,50.10
2019-03-10T16:10:15.206Z,50.10
2019-03-10T16:11:28.790Z,50.50
2019-03-10T16:13:59.348Z,50.50
2019-03-10T16:15:06.496Z,50.20
2019-03-10T16:16:11.256Z,49.90
2019-03-10T16:17:16.107Z,50.00
2019-03-10T16:18:43.699Z,50.50
2019-03-10T16:19:48.167Z,51.10
2019-03-10T16:20:53.110Z,51.10
2019-03-10T16:22:04.103Z,50.90
2019-03-10T16:23:12.599Z,50.90
2019-03-10T16:24:22.071Z,51.00
2019-03-10T16:25:40.391Z,51.40
2019-03-10T16:26:50.558Z,51.50
2019-03-10T16:28:18.455Z,51.60
2019-03-10T16:29:25.063Z,52.10
2019-03-10T16:30:31.382Z,52.30
2019-03-10T16:31:37.627Z,52.50
2019-03-10T16:32:47.363Z,52.80
2019-03-10T16:34:02.022Z,52.80
2019-03-10T16:35:08.741Z,53.00
2019-03-10T16:36:45.150Z,53.20
2019-03-10T16:37:52.318Z,53.30
2019-03-10T16:39:31.034Z,53.40
2019-03-10T16:42:02.287Z,53.80
2019-03-10T16:43:08.701Z,54.00
2019-03-10T16:44:17.240Z,54.20
2019-03-10T16:45:26.532Z,54.30
2019-03-10T16:46:35.287Z,54.60
2019-03-10T16:47:48.134Z,54.90
2019-03-10T16:48:53.349Z,55.30
2019-03-10T16:49:59.869Z,55.40
2019-03-10T16:51:07.156Z,55.50
2019-03-10T16:52:12.181Z,55.60
2019-03-10T16:53:18.487Z,56.10
2019-03-10T16:54:30.435Z,56.60
2019-03-10T16:55:36.275Z,56.80
2019-03-10T16:56:58.623Z,56.80
2019-03-10T16:58:04.595Z,56.80
2019-03-10T16:59:13.164Z,56.80
2019-03-10T17:00:30.638Z,57.20
2019-03-10T17:01:50.919Z,57.30
2019-03-10T17:02:56.767Z,56.90
2019-03-10T17:04:00.935Z,57.30
2019-03-10T17:05:16.394Z,57.30
2019-03-10T17:06:22.542Z,57.30
2019-03-10T17:07:30.450Z,57.30
2019-03-10T17:08:36.927Z,57.60
2019-03-10T17:09:42.789Z,57.90
2019-03-10T17:10:47.692Z,58.10
2019-03-10T17:11:52.933Z,58.40
2019-03-10T17:12:59.175Z,58.60
2019-03-10T17:14:06.907Z,58.80
2019-03-10T17:15:19.658Z,59.20
2019-03-10T17:16:27.516Z,59.30